sensor_id;sensor_type;location;lat;lon;timestamp;pressure;altitude;pressure_sealevel;temperature;humidity
21824;BME280;11074;48.596;9.238;2023-03-13T00:01:38;97793.72;;;7.81;82.64
21824;BME280;11074;48.596;9.238;2023-03-13T00:04:05;97793.16;;;7.79;82.54
21824;BME280;11074;48.596;9.238;2023-03-13T00:06:37;97783.34;;;7.79;82.69
21824;BME280;11074;48.596;9.238;2023-03-13T00:09:09;97785.72;;;7.81;82.50
21824;BME280;11074;48.596;9.238;2023-03-13T00:11:36;97782.25;;;7.80;82.55
21824;BME280;11074;48.596;9.238;2023-03-13T00:14:04;97779.38;;;7.82;82.47
21824;BME280;11074;48.596;9.238;2023-03-13T00:16:30;97784.69;;;7.82;82.38
21824;BME280;11074;48.596;9.238;2023-03-13T00:18:57;97783.56;;;7.78;82.57
21824;BME280;11074;48.596;9.238;2023-03-13T00:21:26;97768.06;;;7.75;82.71
21824;BME280;11074;48.596;9.238;2023-03-13T00:23:53;97772.63;;;7.74;83.37
21824;BME280;11074;48.596;9.238;2023-03-13T00:26:22;97766.22;;;7.75;83.45
21824;BME280;11074;48.596;9.238;2023-03-13T00:28:49;97774.38;;;7.69;83.63
21824;BME280;11074;48.596;9.238;2023-03-13T00:31:23;97780.41;;;7.64;83.75
21824;BME280;11074;48.596;9.238;2023-03-13T00:33:53;97777.53;;;7.66;83.96
21824;BME280;11074;48.596;9.238;2023-03-13T00:36:22;97767.69;;;7.66;84.16
21824;BME280;11074;48.596;9.238;2023-03-13T00:38:49;97775.91;;;7.65;83.88
21824;BME280;11074;48.596;9.238;2023-03-13T00:41:26;97771.22;;;7.72;83.78
21824;BME280;11074;48.596;9.238;2023-03-13T00:43:53;97773.31;;;7.70;84.21
21824;BME280;11074;48.596;9.238;2023-03-13T00:46:23;97779.19;;;7.72;83.67
21824;BME280;11074;48.596;9.238;2023-03-13T00:48:49;97778.16;;;7.73;83.44
21824;BME280;11074;48.596;9.238;2023-03-13T00:51:17;97772.28;;;7.71;83.84
21824;BME280;11074;48.596;9.238;2023-03-13T00:53:44;97772.03;;;7.72;83.76
21824;BME280;11074;48.596;9.238;2023-03-13T00:56:13;97770.44;;;7.71;83.80
21824;BME280;11074;48.596;9.238;2023-03-13T00:58:42;97768.56;;;7.72;84.43
21824;BME280;11074;48.596;9.238;2023-03-13T01:01:13;97763.81;;;7.74;84.27
21824;BME280;11074;48.596;9.238;2023-03-13T01:03:42;97763.81;;;7.74;84.54
21824;BME280;11074;48.596;9.238;2023-03-13T01:06:12;97763.00;;;7.73;84.77
21824;BME280;11074;48.596;9.238;2023-03-13T01:08:39;97753.19;;;7.74;84.57
21824;BME280;11074;48.596;9.238;2023-03-13T01:11:10;97757.44;;;7.75;84.98
21824;BME280;11074;48.596;9.238;2023-03-13T01:13:37;97747.59;;;7.75;84.76
21824;BME280;11074;48.596;9.238;2023-03-13T01:16:12;97739.41;;;7.77;85.04
21824;BME280;11074;48.596;9.238;2023-03-13T01:18:42;97732.19;;;7.77;84.74
21824;BME280;11074;48.596;9.238;2023-03-13T01:21:08;97722.34;;;7.78;84.45
21824;BME280;11074;48.596;9.238;2023-03-13T01:23:34;97725.84;;;7.78;85.23
21824;BME280;11074;48.596;9.238;2023-03-13T01:26:00;97723.16;;;7.78;84.76
21824;BME280;11074;48.596;9.238;2023-03-13T01:28:28;97721.88;;;7.81;84.32
21824;BME280;11074;48.596;9.238;2023-03-13T01:30:54;97719.69;;;7.78;84.67
21824;BME280;11074;48.596;9.238;2023-03-13T01:33:20;97712.78;;;7.77;84.68
21824;BME280;11074;48.596;9.238;2023-03-13T01:35:46;97702.38;;;7.75;84.69
21824;BME280;11074;48.596;9.238;2023-03-13T01:38:12;97701.56;;;7.75;84.43
21824;BME280;11074;48.596;9.238;2023-03-13T01:40:47;97698.34;;;7.73;84.85
21824;BME280;11074;48.596;9.238;2023-03-13T01:43:26;97699.72;;;7.75;84.57
21824;BME280;11074;48.596;9.238;2023-03-13T01:49:18;97690.69;;;7.76;84.44
21824;BME280;11074;48.596;9.238;2023-03-13T01:52:00;97678.09;;;7.72;84.80
21824;BME280;11074;48.596;9.238;2023-03-13T01:54:51;97679.09;;;7.66;84.73
21824;BME280;11074;48.596;9.238;2023-03-13T01:57:33;97672.44;;;7.63;84.72
21824;BME280;11074;48.596;9.238;2023-03-13T02:00:13;97663.38;;;7.64;85.00
21824;BME280;11074;48.596;9.238;2023-03-13T02:02:47;97653.31;;;7.66;85.32
21824;BME280;11074;48.596;9.238;2023-03-13T02:05:15;97646.69;;;7.69;84.79
21824;BME280;11074;48.596;9.238;2023-03-13T02:07:54;97640.88;;;7.72;84.85
21824;BME280;11074;48.596;9.238;2023-03-13T02:10:23;97638.19;;;7.72;84.77
21824;BME280;11074;48.596;9.238;2023-03-13T02:12:52;97638.47;;;7.70;84.95
21824;BME280;11074;48.596;9.238;2023-03-13T02:15:21;97639.00;;;7.72;85.07
21824;BME280;11074;48.596;9.238;2023-03-13T02:17:49;97628.38;;;7.72;84.84
21824;BME280;11074;48.596;9.238;2023-03-13T02:20:18;97630.22;;;7.72;85.30
21824;BME280;11074;48.596;9.238;2023-03-13T02:23:18;97636.06;;;7.69;85.36
21824;BME280;11074;48.596;9.238;2023-03-13T02:25:53;97636.63;;;7.71;85.63
21824;BME280;11074;48.596;9.238;2023-03-13T02:28:30;97628.38;;;7.72;85.29
21824;BME280;11074;48.596;9.238;2023-03-13T02:31:00;97625.78;;;7.77;85.22
21824;BME280;11074;48.596;9.238;2023-03-13T02:33:31;97627.94;;;7.80;84.99
21824;BME280;11074;48.596;9.238;2023-03-13T02:36:01;97623.69;;;7.79;84.94
21824;BME280;11074;48.596;9.238;2023-03-13T02:38:33;97607.97;;;7.78;85.04
21824;BME280;11074;48.596;9.238;2023-03-13T02:41:01;97618.59;;;7.78;85.01
21824;BME280;11074;48.596;9.238;2023-03-13T02:43:39;97606.91;;;7.79;85.78
21824;BME280;11074;48.596;9.238;2023-03-13T02:46:20;97601.59;;;7.79;85.50
21824;BME280;11074;48.596;9.238;2023-03-13T02:48:55;97599.97;;;7.78;85.35
21824;BME280;11074;48.596;9.238;2023-03-13T02:51:41;97594.44;;;7.79;85.41
21824;BME280;11074;48.596;9.238;2023-03-13T02:54:15;97591.50;;;7.81;85.88
21824;BME280;11074;48.596;9.238;2023-03-13T02:56:44;97577.16;;;7.82;85.51
21824;BME280;11074;48.596;9.238;2023-03-13T02:59:11;97575.81;;;7.79;85.68
21824;BME280;11074;48.596;9.238;2023-03-13T03:01:37;97569.94;;;7.82;85.93
21824;BME280;11074;48.596;9.238;2023-03-13T03:04:03;97569.19;;;7.82;86.00
21824;BME280;11074;48.596;9.238;2023-03-13T03:06:29;97568.38;;;7.81;86.07
21824;BME280;11074;48.596;9.238;2023-03-13T03:08:55;97568.91;;;7.83;85.98
21824;BME280;11074;48.596;9.238;2023-03-13T03:11:20;97560.13;;;7.83;86.15
21824;BME280;11074;48.596;9.238;2023-03-13T03:13:46;97553.22;;;7.82;86.11
21824;BME280;11074;48.596;9.238;2023-03-13T03:16:14;97540.44;;;7.84;86.51
21824;BME280;11074;48.596;9.238;2023-03-13T03:18:43;97538.34;;;7.86;86.04
21824;BME280;11074;48.596;9.238;2023-03-13T03:21:09;97543.44;;;7.87;85.86
21824;BME280;11074;48.596;9.238;2023-03-13T03:23:35;97542.34;;;7.88;85.96
21824;BME280;11074;48.596;9.238;2023-03-13T03:26:04;97532.53;;;7.89;86.20
21824;BME280;11074;48.596;9.238;2023-03-13T03:28:31;97526.16;;;7.90;86.26
21824;BME280;11074;48.596;9.238;2023-03-13T03:31:02;97523.50;;;7.90;86.69
21824;BME280;11074;48.596;9.238;2023-03-13T03:33:28;97509.63;;;7.88;86.37
21824;BME280;11074;48.596;9.238;2023-03-13T03:36:04;97515.75;;;7.88;87.12
21824;BME280;11074;48.596;9.238;2023-03-13T03:38:31;97508.31;;;7.90;86.67
21824;BME280;11074;48.596;9.238;2023-03-13T03:40:57;97503.00;;;7.90;87.77
21824;BME280;11074;48.596;9.238;2023-03-13T03:43:23;97509.94;;;7.91;87.60
21824;BME280;11074;48.596;9.238;2023-03-13T03:45:49;97513.41;;;7.92;86.81
21824;BME280;11074;48.596;9.238;2023-03-13T03:48:15;97517.91;;;7.91;86.17
21824;BME280;11074;48.596;9.238;2023-03-13T03:50:41;97516.59;;;7.94;86.57
21824;BME280;11074;48.596;9.238;2023-03-13T03:53:07;97514.75;;;7.94;86.71
21824;BME280;11074;48.596;9.238;2023-03-13T03:55:34;97521.44;;;7.97;86.11
21824;BME280;11074;48.596;9.238;2023-03-13T03:58:00;97512.63;;;7.97;86.22
21824;BME280;11074;48.596;9.238;2023-03-13T04:00:25;97507.31;;;7.97;87.56
21824;BME280;11074;48.596;9.238;2023-03-13T04:02:53;97504.59;;;7.91;88.25
21824;BME280;11074;48.596;9.238;2023-03-13T04:05:21;97511.78;;;7.91;88.84
21824;BME280;11074;48.596;9.238;2023-03-13T04:07:47;97510.75;;;7.92;89.69
21824;BME280;11074;48.596;9.238;2023-03-13T04:10:12;97505.47;;;7.97;90.31
21824;BME280;11074;48.596;9.238;2023-03-13T04:12:39;97509.78;;;8.03;90.83
21824;BME280;11074;48.596;9.238;2023-03-13T04:15:06;97509.63;;;8.15;90.87
21824;BME280;11074;48.596;9.238;2023-03-13T04:17:32;97503.28;;;8.21;90.28
21824;BME280;11074;48.596;9.238;2023-03-13T04:19:58;97504.72;;;8.28;90.05
21824;BME280;11074;48.596;9.238;2023-03-13T04:22:24;97506.63;;;8.33;89.92
21824;BME280;11074;48.596;9.238;2023-03-13T04:24:50;97495.72;;;8.34;90.21
21824;BME280;11074;48.596;9.238;2023-03-13T04:27:16;97502.19;;;8.43;89.85
21824;BME280;11074;48.596;9.238;2023-03-13T04:29:42;97494.22;;;8.43;89.89
21824;BME280;11074;48.596;9.238;2023-03-13T04:32:08;97489.69;;;8.49;90.41
21824;BME280;11074;48.596;9.238;2023-03-13T04:34:39;97487.88;;;8.54;90.34
21824;BME280;11074;48.596;9.238;2023-03-13T04:37:04;97474.03;;;8.58;90.20
21824;BME280;11074;48.596;9.238;2023-03-13T04:39:33;97471.41;;;8.63;90.40
21824;BME280;11074;48.596;9.238;2023-03-13T04:41:59;97466.41;;;8.71;91.96
21824;BME280;11074;48.596;9.238;2023-03-13T04:44:25;97471.81;;;8.86;92.25
21824;BME280;11074;48.596;9.238;2023-03-13T04:46:50;97467.91;;;8.99;90.99
21824;BME280;11074;48.596;9.238;2023-03-13T04:49:16;97472.50;;;9.08;90.64
21824;BME280;11074;48.596;9.238;2023-03-13T04:51:45;97463.50;;;9.30;89.91
21824;BME280;11074;48.596;9.238;2023-03-13T04:54:11;97467.84;;;9.46;89.09
21824;BME280;11074;48.596;9.238;2023-03-13T04:56:37;97465.50;;;9.59;89.69
21824;BME280;11074;48.596;9.238;2023-03-13T04:59:03;97461.25;;;9.73;89.47
21824;BME280;11074;48.596;9.238;2023-03-13T05:01:29;97461.81;;;9.86;88.40
21824;BME280;11074;48.596;9.238;2023-03-13T05:03:55;97470.63;;;9.86;87.82
21824;BME280;11074;48.596;9.238;2023-03-13T05:06:21;97463.16;;;9.93;87.79
21824;BME280;11074;48.596;9.238;2023-03-13T05:08:47;97461.06;;;10.10;87.60
21824;BME280;11074;48.596;9.238;2023-03-13T05:11:16;97450.69;;;10.19;87.80
21824;BME280;11074;48.596;9.238;2023-03-13T05:13:41;97456.00;;;10.24;87.00
21824;BME280;11074;48.596;9.238;2023-03-13T05:16:07;97449.88;;;10.28;87.43
21824;BME280;11074;48.596;9.238;2023-03-13T05:18:39;97448.81;;;10.34;86.72
21824;BME280;11074;48.596;9.238;2023-03-13T05:21:06;97450.13;;;10.32;87.51
21824;BME280;11074;48.596;9.238;2023-03-13T05:23:32;97451.72;;;10.33;86.21
21824;BME280;11074;48.596;9.238;2023-03-13T05:25:59;97476.03;;;10.31;88.11
21824;BME280;11074;48.596;9.238;2023-03-13T05:28:25;97470.94;;;10.30;87.13
21824;BME280;11074;48.596;9.238;2023-03-13T05:30:51;97468.03;;;10.37;88.37
21824;BME280;11074;48.596;9.238;2023-03-13T05:33:17;97461.63;;;10.48;87.60
21824;BME280;11074;48.596;9.238;2023-03-13T05:35:45;97460.53;;;10.49;86.75
21824;BME280;11074;48.596;9.238;2023-03-13T05:38:12;97468.56;;;10.54;86.59
21824;BME280;11074;48.596;9.238;2023-03-13T05:40:38;97467.75;;;10.53;86.91
21824;BME280;11074;48.596;9.238;2023-03-13T05:43:04;97463.22;;;10.54;84.99
21824;BME280;11074;48.596;9.238;2023-03-13T05:45:31;97455.22;;;10.54;86.98
21824;BME280;11074;48.596;9.238;2023-03-13T05:47:56;97449.59;;;10.55;86.00
21824;BME280;11074;48.596;9.238;2023-03-13T05:50:24;97443.94;;;10.57;84.98
21824;BME280;11074;48.596;9.238;2023-03-13T05:52:50;97456.53;;;10.61;86.29
21824;BME280;11074;48.596;9.238;2023-03-13T05:55:17;97452.75;;;10.67;86.51
21824;BME280;11074;48.596;9.238;2023-03-13T05:57:47;97455.69;;;10.71;85.94
21824;BME280;11074;48.596;9.238;2023-03-13T06:00:15;97457.84;;;10.74;85.05
21824;BME280;11074;48.596;9.238;2023-03-13T06:02:43;97446.88;;;10.75;84.43
21824;BME280;11074;48.596;9.238;2023-03-13T06:05:09;97445.00;;;10.76;84.65
21824;BME280;11074;48.596;9.238;2023-03-13T06:07:36;97435.63;;;10.78;84.63
21824;BME280;11074;48.596;9.238;2023-03-13T06:10:04;97434.28;;;10.86;84.77
21824;BME280;11074;48.596;9.238;2023-03-13T06:12:30;97432.66;;;10.90;84.15
21824;BME280;11074;48.596;9.238;2023-03-13T06:15:08;97432.38;;;10.91;83.76
21824;BME280;11074;48.596;9.238;2023-03-13T06:17:35;97434.81;;;10.93;84.04
21824;BME280;11074;48.596;9.238;2023-03-13T06:20:02;97428.34;;;10.99;84.48
21824;BME280;11074;48.596;9.238;2023-03-13T06:22:29;97420.06;;;11.01;84.30
21824;BME280;11074;48.596;9.238;2023-03-13T06:24:55;97430.47;;;11.07;84.89
21824;BME280;11074;48.596;9.238;2023-03-13T06:27:21;97428.31;;;11.14;84.25
21824;BME280;11074;48.596;9.238;2023-03-13T06:29:48;97434.97;;;11.22;83.94
21824;BME280;11074;48.596;9.238;2023-03-13T06:32:13;97441.34;;;11.26;83.50
21824;BME280;11074;48.596;9.238;2023-03-13T06:34:39;97441.63;;;11.29;83.21
21824;BME280;11074;48.596;9.238;2023-03-13T06:37:05;97450.47;;;11.30;83.14
21824;BME280;11074;48.596;9.238;2023-03-13T06:39:31;97447.25;;;11.33;84.28
21824;BME280;11074;48.596;9.238;2023-03-13T06:41:57;97449.06;;;11.42;84.25
21824;BME280;11074;48.596;9.238;2023-03-13T06:44:23;97446.63;;;11.46;84.60
21824;BME280;11074;48.596;9.238;2023-03-13T06:46:49;97450.34;;;11.50;84.15
21824;BME280;11074;48.596;9.238;2023-03-13T06:49:14;97445.75;;;11.61;83.82
21824;BME280;11074;48.596;9.238;2023-03-13T06:51:40;97440.34;;;11.66;84.83
21824;BME280;11074;48.596;9.238;2023-03-13T06:54:06;97436.63;;;11.72;83.91
21824;BME280;11074;48.596;9.238;2023-03-13T06:56:32;97433.69;;;11.73;83.69
21824;BME280;11074;48.596;9.238;2023-03-13T06:58:58;97421.31;;;11.77;84.33
21824;BME280;11074;48.596;9.238;2023-03-13T07:01:24;97437.09;;;11.84;84.10
21824;BME280;11074;48.596;9.238;2023-03-13T07:03:51;97425.56;;;11.83;83.87
21824;BME280;11074;48.596;9.238;2023-03-13T07:06:17;97417.50;;;11.88;84.18
21824;BME280;11074;48.596;9.238;2023-03-13T07:08:43;97426.84;;;11.91;84.49
21824;BME280;11074;48.596;9.238;2023-03-13T07:11:12;97427.38;;;11.93;84.29
21824;BME280;11074;48.596;9.238;2023-03-13T07:13:38;97419.31;;;11.98;83.99
21824;BME280;11074;48.596;9.238;2023-03-13T07:16:11;97429.25;;;11.92;84.08
21824;BME280;11074;48.596;9.238;2023-03-13T07:18:38;97449.81;;;12.02;85.03
21824;BME280;11074;48.596;9.238;2023-03-13T07:21:08;97451.66;;;12.06;83.82
21824;BME280;11074;48.596;9.238;2023-03-13T07:23:34;97449.53;;;12.03;83.94
21824;BME280;11074;48.596;9.238;2023-03-13T07:26:04;97442.31;;;12.04;84.98
21824;BME280;11074;48.596;9.238;2023-03-13T07:28:31;97459.44;;;12.08;85.20
21824;BME280;11074;48.596;9.238;2023-03-13T07:31:11;97453.22;;;12.12;84.54
21824;BME280;11074;48.596;9.238;2023-03-13T07:33:37;97440.09;;;12.16;84.40
21824;BME280;11074;48.596;9.238;2023-03-13T07:36:03;97444.84;;;12.24;84.59
21824;BME280;11074;48.596;9.238;2023-03-13T07:38:29;97436.47;;;12.31;84.13
21824;BME280;11074;48.596;9.238;2023-03-13T07:40:56;97439.66;;;12.33;84.11
21824;BME280;11074;48.596;9.238;2023-03-13T07:43:23;97435.06;;;12.38;84.33
21824;BME280;11074;48.596;9.238;2023-03-13T07:45:57;97442.84;;;12.40;85.00
21824;BME280;11074;48.596;9.238;2023-03-13T07:48:28;97435.81;;;12.44;84.70
21824;BME280;11074;48.596;9.238;2023-03-13T07:50:55;97437.91;;;12.52;84.18
21824;BME280;11074;48.596;9.238;2023-03-13T07:53:22;97445.94;;;12.52;84.18
21824;BME280;11074;48.596;9.238;2023-03-13T07:56:02;97438.13;;;12.55;83.65
21824;BME280;11074;48.596;9.238;2023-03-13T07:58:34;97436.78;;;12.58;83.87
21824;BME280;11074;48.596;9.238;2023-03-13T08:01:16;97431.88;;;12.65;83.36
21824;BME280;11074;48.596;9.238;2023-03-13T08:03:43;97417.44;;;12.61;83.79
21824;BME280;11074;48.596;9.238;2023-03-13T08:06:14;97420.63;;;12.63;84.13
21824;BME280;11074;48.596;9.238;2023-03-13T08:08:44;97408.50;;;12.70;83.91
21824;BME280;11074;48.596;9.238;2023-03-13T08:11:17;97419.97;;;12.76;84.17
21824;BME280;11074;48.596;9.238;2023-03-13T08:13:44;97413.47;;;12.82;83.79
21824;BME280;11074;48.596;9.238;2023-03-13T08:16:18;97407.75;;;12.89;83.40
21824;BME280;11074;48.596;9.238;2023-03-13T08:18:47;97402.63;;;12.92;83.47
21824;BME280;11074;48.596;9.238;2023-03-13T08:21:17;97396.06;;;13.03;84.25
21824;BME280;11074;48.596;9.238;2023-03-13T08:23:43;97392.00;;;13.06;82.54
21824;BME280;11074;48.596;9.238;2023-03-13T08:26:16;97386.91;;;13.04;83.51
21824;BME280;11074;48.596;9.238;2023-03-13T08:28:46;97379.63;;;13.10;83.13
21824;BME280;11074;48.596;9.238;2023-03-13T08:31:18;97362.88;;;13.18;82.33
21824;BME280;11074;48.596;9.238;2023-03-13T08:33:46;97359.06;;;13.24;82.09
21824;BME280;11074;48.596;9.238;2023-03-13T08:36:25;97344.75;;;13.28;83.48
21824;BME280;11074;48.596;9.238;2023-03-13T08:38:54;97350.06;;;13.33;81.71
21824;BME280;11074;48.596;9.238;2023-03-13T08:41:23;97354.66;;;13.33;82.45
21824;BME280;11074;48.596;9.238;2023-03-13T08:43:52;97350.78;;;13.39;82.38
21824;BME280;11074;48.596;9.238;2023-03-13T08:46:18;97357.63;;;13.50;82.73
21824;BME280;11074;48.596;9.238;2023-03-13T08:48:47;97335.25;;;13.55;81.54
21824;BME280;11074;48.596;9.238;2023-03-13T08:51:14;97343.38;;;13.50;81.90
21824;BME280;11074;48.596;9.238;2023-03-13T08:53:42;97353.56;;;13.53;82.33
21824;BME280;11074;48.596;9.238;2023-03-13T08:56:18;97350.00;;;13.57;81.83
21824;BME280;11074;48.596;9.238;2023-03-13T08:58:53;97346.94;;;13.64;81.51
21824;BME280;11074;48.596;9.238;2023-03-13T09:01:21;97364.78;;;13.73;81.92
21824;BME280;11074;48.596;9.238;2023-03-13T09:03:48;97353.13;;;13.83;81.42
21824;BME280;11074;48.596;9.238;2023-03-13T09:06:15;97360.59;;;13.86;81.12
21824;BME280;11074;48.596;9.238;2023-03-13T09:08:41;97351.94;;;13.89;79.88
21824;BME280;11074;48.596;9.238;2023-03-13T09:11:14;97348.66;;;13.92;80.80
21824;BME280;11074;48.596;9.238;2023-03-13T09:13:45;97352.06;;;13.97;80.98
21824;BME280;11074;48.596;9.238;2023-03-13T09:16:15;97366.78;;;14.00;79.45
21824;BME280;11074;48.596;9.238;2023-03-13T09:18:42;97360.84;;;14.03;80.40
21824;BME280;11074;48.596;9.238;2023-03-13T09:21:12;97363.97;;;14.10;80.38
21824;BME280;11074;48.596;9.238;2023-03-13T09:23:38;97350.44;;;14.15;78.77
21824;BME280;11074;48.596;9.238;2023-03-13T09:26:04;97354.78;;;14.11;79.05
21824;BME280;11074;48.596;9.238;2023-03-13T09:28:33;97356.81;;;14.19;79.50
21824;BME280;11074;48.596;9.238;2023-03-13T09:31:09;97357.81;;;14.23;78.48
21824;BME280;11074;48.596;9.238;2023-03-13T09:33:36;97352.84;;;14.30;78.67
21824;BME280;11074;48.596;9.238;2023-03-13T09:36:01;97355.19;;;14.37;79.09
21824;BME280;11074;48.596;9.238;2023-03-13T09:38:35;97351.84;;;14.45;77.97
21824;BME280;11074;48.596;9.238;2023-03-13T09:41:41;97356.00;;;14.51;78.06
21824;BME280;11074;48.596;9.238;2023-03-13T09:44:19;97353.31;;;14.51;77.13
21824;BME280;11074;48.596;9.238;2023-03-13T09:47:09;97348.63;;;14.56;77.49
21824;BME280;11074;48.596;9.238;2023-03-13T09:49:41;97359.81;;;14.64;77.47
21824;BME280;11074;48.596;9.238;2023-03-13T09:52:22;97350.25;;;14.71;76.23
21824;BME280;11074;48.596;9.238;2023-03-13T09:55:13;97359.22;;;14.67;76.43
21824;BME280;11074;48.596;9.238;2023-03-13T09:58:14;97344.09;;;14.71;75.49
21824;BME280;11074;48.596;9.238;2023-03-13T10:01:05;97342.78;;;14.95;75.20
21824;BME280;11074;48.596;9.238;2023-03-13T10:03:39;97340.47;;;15.02;74.30
21824;BME280;11074;48.596;9.238;2023-03-13T10:06:18;97348.44;;;15.07;74.25
21824;BME280;11074;48.596;9.238;2023-03-13T10:08:44;97340.59;;;15.11;72.96
21824;BME280;11074;48.596;9.238;2023-03-13T10:11:36;97338.75;;;15.20;72.40
21824;BME280;11074;48.596;9.238;2023-03-13T10:14:32;97346.53;;;15.22;72.65
21824;BME280;11074;48.596;9.238;2023-03-13T10:17:21;97333.38;;;15.20;72.08
21824;BME280;11074;48.596;9.238;2023-03-13T10:20:27;97357.09;;;15.32;71.20
21824;BME280;11074;48.596;9.238;2023-03-13T10:23:13;97339.22;;;15.36;70.76
21824;BME280;11074;48.596;9.238;2023-03-13T10:25:40;97325.47;;;15.37;71.52
21824;BME280;11074;48.596;9.238;2023-03-13T10:28:16;97325.94;;;15.39;70.56
21824;BME280;11074;48.596;9.238;2023-03-13T10:30:50;97323.16;;;15.44;70.51
21824;BME280;11074;48.596;9.238;2023-03-13T10:33:27;97309.19;;;15.56;69.89
21824;BME280;11074;48.596;9.238;2023-03-13T10:36:10;97318.91;;;15.65;69.29
21824;BME280;11074;48.596;9.238;2023-03-13T10:38:53;97306.53;;;15.87;68.01
21824;BME280;11074;48.596;9.238;2023-03-13T10:41:35;97314.28;;;15.80;67.92
21824;BME280;11074;48.596;9.238;2023-03-13T10:44:16;97303.91;;;15.73;68.24
21824;BME280;11074;48.596;9.238;2023-03-13T10:46:45;97304.91;;;15.77;67.97
21824;BME280;11074;48.596;9.238;2023-03-13T10:52:02;97289.41;;;15.83;68.23
21824;BME280;11074;48.596;9.238;2023-03-13T10:54:33;97285.03;;;15.95;67.71
21824;BME280;11074;48.596;9.238;2023-03-13T10:59:46;97264.47;;;16.30;66.43
21824;BME280;11074;48.596;9.238;2023-03-13T11:02:37;97246.97;;;16.58;65.82
21824;BME280;11074;48.596;9.238;2023-03-13T11:05:30;97248.94;;;16.75;65.01
21824;BME280;11074;48.596;9.238;2023-03-13T11:07:57;97232.19;;;16.56;64.73
21824;BME280;11074;48.596;9.238;2023-03-13T11:10:29;97241.13;;;16.65;65.20
21824;BME280;11074;48.596;9.238;2023-03-13T11:12:57;97227.13;;;16.54;65.58
21824;BME280;11074;48.596;9.238;2023-03-13T11:15:41;97229.94;;;16.49;65.39
21824;BME280;11074;48.596;9.238;2023-03-13T11:19:07;97209.03;;;16.63;65.42
21824;BME280;11074;48.596;9.238;2023-03-13T11:24:43;97201.28;;;16.62;65.31
21824;BME280;11074;48.596;9.238;2023-03-13T11:27:27;97204.31;;;16.77;65.62
21824;BME280;11074;48.596;9.238;2023-03-13T11:33:20;97200.84;;;16.85;65.25
21824;BME280;11074;48.596;9.238;2023-03-13T11:35:58;97187.03;;;17.04;64.58
21824;BME280;11074;48.596;9.238;2023-03-13T11:38:41;97187.22;;;17.16;63.99
21824;BME280;11074;48.596;9.238;2023-03-13T11:41:36;97183.69;;;17.16;64.14
21824;BME280;11074;48.596;9.238;2023-03-13T11:50:34;97140.28;;;17.38;63.72
21824;BME280;11074;48.596;9.238;2023-03-13T11:53:32;97131.69;;;17.62;63.10
21824;BME280;11074;48.596;9.238;2023-03-13T11:56:14;97121.03;;;18.03;61.84
21824;BME280;11074;48.596;9.238;2023-03-13T11:59:00;97134.16;;;18.22;60.63
21824;BME280;11074;48.596;9.238;2023-03-13T12:01:36;97111.88;;;18.54;60.29
21824;BME280;11074;48.596;9.238;2023-03-13T12:04:33;97096.81;;;18.86;58.97
21824;BME280;11074;48.596;9.238;2023-03-13T12:07:27;97083.44;;;19.01;58.36
21824;BME280;11074;48.596;9.238;2023-03-13T12:10:01;97078.09;;;19.13;57.08
21824;BME280;11074;48.596;9.238;2023-03-13T12:12:46;97067.72;;;19.27;56.50
21824;BME280;11074;48.596;9.238;2023-03-13T12:15:22;97058.53;;;19.41;56.18
21824;BME280;11074;48.596;9.238;2023-03-13T12:18:22;97060.25;;;19.57;56.30
21824;BME280;11074;48.596;9.238;2023-03-13T12:21:04;97041.84;;;19.63;55.55
21824;BME280;11074;48.596;9.238;2023-03-13T12:26:15;97028.53;;;19.82;55.68
21824;BME280;11074;48.596;9.238;2023-03-13T12:29:06;97016.66;;;19.99;55.20
21824;BME280;11074;48.596;9.238;2023-03-13T12:31:49;97023.41;;;20.05;54.31
21824;BME280;11074;48.596;9.238;2023-03-13T12:34:26;97014.59;;;20.20;54.03
21824;BME280;11074;48.596;9.238;2023-03-13T12:37:04;96997.00;;;20.53;54.03
21824;BME280;11074;48.596;9.238;2023-03-13T12:39:59;96981.25;;;20.59;52.36
21824;BME280;11074;48.596;9.238;2023-03-13T12:42:57;96964.59;;;20.61;52.15
21824;BME280;11074;48.596;9.238;2023-03-13T12:45:26;96950.75;;;20.66;51.15
21824;BME280;11074;48.596;9.238;2023-03-13T12:51:46;96940.09;;;20.73;51.38
21824;BME280;11074;48.596;9.238;2023-03-13T13:00:25;96904.38;;;20.86;49.65
21824;BME280;11074;48.596;9.238;2023-03-13T13:03:21;96898.25;;;21.05;48.60
21824;BME280;11074;48.596;9.238;2023-03-13T13:06:14;96894.06;;;21.23;47.71
21824;BME280;11074;48.596;9.238;2023-03-13T13:16:51;96857.38;;;21.67;45.51
21824;BME280;11074;48.596;9.238;2023-03-13T13:30:30;96820.53;;;22.27;44.34
21824;BME280;11074;48.596;9.238;2023-03-13T13:35:46;96821.06;;;21.95;44.49
21824;BME280;11074;48.596;9.238;2023-03-13T13:38:19;96813.00;;;21.63;44.48
21824;BME280;11074;48.596;9.238;2023-03-13T13:48:41;96793.34;;;21.35;45.57
21824;BME280;11074;48.596;9.238;2023-03-13T13:58:58;96765.88;;;21.40;46.40
21824;BME280;11074;48.596;9.238;2023-03-13T14:01:24;96764.69;;;21.57;46.44
21824;BME280;11074;48.596;9.238;2023-03-13T14:03:59;96755.59;;;21.68;46.01
21824;BME280;11074;48.596;9.238;2023-03-13T14:06:34;96757.94;;;21.70;44.72
21824;BME280;11074;48.596;9.238;2023-03-13T14:09:32;96748.31;;;21.92;45.36
21824;BME280;11074;48.596;9.238;2023-03-13T14:11:59;96734.09;;;22.02;45.11
21824;BME280;11074;48.596;9.238;2023-03-13T14:14:25;96740.84;;;22.08;45.31
21824;BME280;11074;48.596;9.238;2023-03-13T14:16:56;96734.97;;;22.06;45.06
21824;BME280;11074;48.596;9.238;2023-03-13T14:19:41;96734.03;;;21.98;46.20
21824;BME280;11074;48.596;9.238;2023-03-13T14:22:10;96728.84;;;21.90;45.96
21824;BME280;11074;48.596;9.238;2023-03-13T14:24:36;96729.09;;;21.85;46.19
21824;BME280;11074;48.596;9.238;2023-03-13T14:27:15;96722.19;;;21.87;45.75
21824;BME280;11074;48.596;9.238;2023-03-13T14:29:58;96724.50;;;21.69;46.29
21824;BME280;11074;48.596;9.238;2023-03-13T14:32:25;96722.03;;;21.61;46.59
21824;BME280;11074;48.596;9.238;2023-03-13T14:34:51;96712.56;;;21.74;46.63
21824;BME280;11074;48.596;9.238;2023-03-13T14:38:01;96707.47;;;21.72;46.79
21824;BME280;11074;48.596;9.238;2023-03-13T14:40:30;96703.31;;;21.79;47.26
21824;BME280;11074;48.596;9.238;2023-03-13T14:43:00;96688.81;;;21.90;47.25